createdAt,value
2022-10-02T00:00:20.940Z,25.30
2022-10-02T00:02:52.749Z,25.30
2022-10-02T00:05:23.763Z,25.30
2022-10-02T00:08:03.568Z,25.30
2022-10-02T00:10:50.751Z,25.40
2022-10-02T00:13:24.263Z,25.40
2022-10-02T00:15:52.897Z,25.40
2022-10-02T00:18:23.141Z,25.40
2022-10-02T00:21:10.339Z,25.40
2022-10-02T00:23:44.374Z,25.50
2022-10-02T00:26:20.790Z,25.50
2022-10-02T00:29:07.916Z,25.50
2022-10-02T00:31:51.941Z,25.60
2022-10-02T00:34:31.811Z,25.60
2022-10-02T00:37:08.804Z,25.60
2022-10-02T00:39:48.818Z,25.60
2022-10-02T00:42:28.712Z,25.60
2022-10-02T00:45:08.546Z,25.70
2022-10-02T00:47:48.424Z,25.60
2022-10-02T00:50:25.353Z,25.70
2022-10-02T00:53:05.760Z,25.70
2022-10-02T00:55:53.640Z,25.80
2022-10-02T00:58:33.474Z,25.80
2022-10-02T01:01:10.172Z,25.90
2022-10-02T01:03:40.749Z,26.00
2022-10-02T01:06:09.198Z,26.00
2022-10-02T01:08:37.414Z,26.10
2022-10-02T01:11:06.256Z,26.10
2022-10-02T01:13:33.890Z,26.10
2022-10-02T01:16:01.757Z,26.10
2022-10-02T01:18:31.379Z,26.20
2022-10-02T01:21:02.967Z,26.20
2022-10-02T01:23:42.968Z,26.30
2022-10-02T01:26:10.461Z,26.30
2022-10-02T01:28:38.189Z,26.30
2022-10-02T01:31:08.801Z,26.40
2022-10-02T01:33:37.618Z,26.50
2022-10-02T01:36:05.928Z,26.50
2022-10-02T01:38:33.871Z,26.60
2022-10-02T01:41:01.484Z,26.60
2022-10-02T01:43:34.486Z,26.70
2022-10-02T01:46:14.390Z,26.70
2022-10-02T01:48:46.239Z,26.80
2022-10-02T01:51:31.346Z,26.80
2022-10-02T01:54:04.837Z,26.90
2022-10-02T01:56:52.077Z,27.00
2022-10-02T01:59:39.493Z,27.00
2022-10-02T02:02:14.221Z,27.00
2022-10-02T02:04:49.160Z,27.10
2022-10-02T02:07:29.860Z,27.10
2022-10-02T02:10:10.308Z,27.20
2022-10-02T02:12:43.896Z,27.20
2022-10-02T02:15:23.727Z,27.30
2022-10-02T02:18:03.502Z,27.40
2022-10-02T02:20:33.837Z,27.40
2022-10-02T02:23:11.349Z,27.50
2022-10-02T02:25:41.492Z,27.60
2022-10-02T02:28:12.817Z,27.70
2022-10-02T02:30:42.199Z,27.80
2022-10-02T02:33:12.823Z,27.90
2022-10-02T02:35:43.249Z,28.00
2022-10-02T02:38:17.925Z,28.00
2022-10-02T02:40:49.227Z,28.10
2022-10-02T02:43:36.387Z,28.20
2022-10-02T02:46:07.135Z,28.30
2022-10-02T02:48:39.765Z,28.40
2022-10-02T02:51:11.773Z,28.50
2022-10-02T02:53:42.212Z,28.60
2022-10-02T02:56:12.579Z,28.60
2022-10-02T02:58:46.258Z,28.70
2022-10-02T03:01:14.778Z,28.70
2022-10-02T03:03:42.489Z,28.70
2022-10-02T03:06:32.395Z,28.70
2022-10-02T03:09:00.800Z,28.70
2022-10-02T03:11:37.626Z,28.70
2022-10-02T03:14:17.399Z,28.70
2022-10-02T03:17:04.581Z,28.70
2022-10-02T03:19:51.730Z,28.70
2022-10-02T03:22:35.784Z,28.70
2022-10-02T03:25:11.292Z,28.60
2022-10-02T03:27:58.596Z,28.60
2022-10-02T03:30:27.400Z,28.50
2022-10-02T03:32:56.611Z,28.50
2022-10-02T03:35:25.462Z,28.50
2022-10-02T03:37:54.677Z,28.50
2022-10-02T03:40:23.730Z,28.50
2022-10-02T03:42:52.269Z,28.50
2022-10-02T03:45:46.110Z,28.50
2022-10-02T03:48:07.979Z,28.50
2022-10-02T03:50:36.556Z,28.60
2022-10-02T03:53:07.692Z,28.70
2022-10-02T03:55:37.183Z,28.70
2022-10-02T03:58:10.991Z,28.80
2022-10-02T04:00:39.909Z,28.80
2022-10-02T04:03:11.605Z,28.80
2022-10-02T04:05:46.573Z,28.80
2022-10-02T04:08:23.588Z,28.80
2022-10-02T04:10:53.510Z,28.70
2022-10-02T04:13:31.164Z,28.70
2022-10-02T04:16:06.420Z,28.60
2022-10-02T04:18:53.727Z,28.50
2022-10-02T04:21:41.188Z,28.40
2022-10-02T04:24:21.253Z,28.40
2022-10-02T04:26:59.365Z,28.30
2022-10-02T04:29:28.919Z,28.20
2022-10-02T04:32:05.598Z,28.20
2022-10-02T04:34:33.141Z,28.10
2022-10-02T04:37:13.731Z,28.00
2022-10-02T04:40:01.209Z,27.90
2022-10-02T04:42:39.390Z,27.90
2022-10-02T04:45:18.103Z,27.90
2022-10-02T04:48:05.212Z,27.90
2022-10-02T04:50:45.321Z,27.90
2022-10-02T04:53:26.067Z,27.90
2022-10-02T04:56:04.839Z,27.80
2022-10-02T04:58:46.657Z,27.80
2022-10-02T05:01:29.669Z,27.80
2022-10-02T05:04:05.698Z,27.70
2022-10-02T05:06:44.568Z,27.70
2022-10-02T05:09:32.476Z,27.60
2022-10-02T05:12:11.219Z,27.50
2022-10-02T05:14:53.909Z,27.50
2022-10-02T05:17:40.619Z,27.40
2022-10-02T05:20:18.109Z,27.40
2022-10-02T05:22:58.143Z,27.30
2022-10-02T05:25:45.203Z,27.30
2022-10-02T05:28:25.088Z,27.30
2022-10-02T05:31:04.547Z,27.30
2022-10-02T05:33:48.508Z,27.30
2022-10-02T05:36:36.055Z,27.20
2022-10-02T05:39:07.612Z,27.20
2022-10-02T05:41:45.020Z,27.20
2022-10-02T05:44:20.957Z,27.20
2022-10-02T05:47:01.771Z,27.20
2022-10-02T05:49:38.543Z,27.30
2022-10-02T05:52:10.893Z,27.30
2022-10-02T05:54:58.152Z,27.30
2022-10-02T05:57:34.994Z,27.40
2022-10-02T06:00:22.393Z,27.40
2022-10-02T06:03:09.715Z,27.50
2022-10-02T06:05:55.754Z,27.50
2022-10-02T06:08:41.970Z,27.50
2022-10-02T06:11:13.253Z,27.50
2022-10-02T06:13:47.320Z,27.50
2022-10-02T06:16:21.586Z,27.50
2022-10-02T06:18:52.608Z,27.40
2022-10-02T06:21:39.755Z,27.40
2022-10-02T06:24:13.089Z,27.40
2022-10-02T06:26:50.867Z,27.30
2022-10-02T06:29:34.172Z,27.20
2022-10-02T06:32:16.199Z,27.20
2022-10-02T06:34:47.957Z,27.20
2022-10-02T06:37:35.474Z,27.10
2022-10-02T06:40:14.710Z,27.10
2022-10-02T06:42:55.279Z,27.00
2022-10-02T06:45:33.427Z,27.00
2022-10-02T06:48:22.273Z,27.00
2022-10-02T06:51:02.896Z,26.90
2022-10-02T06:53:37.716Z,26.90
2022-10-02T06:56:24.895Z,26.80
2022-10-02T06:59:05.806Z,26.80
2022-10-02T07:01:40.583Z,26.80
2022-10-02T07:04:27.809Z,26.80
2022-10-02T07:07:15.233Z,26.80
2022-10-02T07:09:57.144Z,26.70
2022-10-02T07:12:45.970Z,26.70
2022-10-02T07:15:33.141Z,26.70
2022-10-02T07:18:09.183Z,26.60
2022-10-02T07:20:56.387Z,26.50
2022-10-02T07:23:36.784Z,26.50
2022-10-02T07:26:24.072Z,26.50
2022-10-02T07:29:11.262Z,26.50
2022-10-02T07:31:59.384Z,26.50
2022-10-02T07:34:46.895Z,26.50
2022-10-02T07:37:19.792Z,26.50
2022-10-02T07:40:06.920Z,26.50
2022-10-02T07:42:48.644Z,26.50
2022-10-02T07:45:26.953Z,26.40
2022-10-02T07:48:05.891Z,26.30
2022-10-02T07:50:53.038Z,26.30
2022-10-02T07:53:39.277Z,26.20
2022-10-02T07:56:20.352Z,26.20
2022-10-02T07:59:08.952Z,26.10
2022-10-02T08:01:37.803Z,26.10
2022-10-02T08:04:10.955Z,26.10
2022-10-02T08:06:39.721Z,26.10
2022-10-02T08:09:17.298Z,26.10
2022-10-02T08:11:57.068Z,26.10
2022-10-02T08:14:32.389Z,26.00
2022-10-02T08:17:03.573Z,26.00
2022-10-02T08:19:39.614Z,26.00
2022-10-02T08:22:16.572Z,26.00
2022-10-02T08:24:47.628Z,26.00
2022-10-02T08:27:20.957Z,26.00
2022-10-02T08:30:08.822Z,26.00
2022-10-02T08:32:38.187Z,26.00
2022-10-02T08:35:13.370Z,26.00
2022-10-02T08:38:01.049Z,26.00
2022-10-02T08:40:40.778Z,26.00
2022-10-02T08:43:23.970Z,26.00
2022-10-02T08:46:03.784Z,26.00
2022-10-02T08:48:51.495Z,26.00
2022-10-02T08:51:31.286Z,26.00
2022-10-02T08:54:11.050Z,26.00
2022-10-02T08:56:51.549Z,26.00
2022-10-02T08:59:38.787Z,25.90
2022-10-02T09:02:27.817Z,26.00
2022-10-02T09:05:15.047Z,25.90
2022-10-02T09:07:54.899Z,25.90
2022-10-02T09:10:37.726Z,25.90
2022-10-02T09:13:24.852Z,25.90
2022-10-02T09:16:04.703Z,26.00
2022-10-02T09:18:51.281Z,25.90
2022-10-02T09:21:24.167Z,25.90
2022-10-02T09:24:10.557Z,25.90
2022-10-02T09:26:49.297Z,25.90
2022-10-02T09:29:37.078Z,25.90
2022-10-02T09:32:16.873Z,25.90
2022-10-02T09:34:58.594Z,25.90
2022-10-02T09:37:44.680Z,25.80
2022-10-02T09:40:33.218Z,25.80
2022-10-02T09:43:18.186Z,25.80
2022-10-02T09:46:06.956Z,25.90
2022-10-02T09:48:54.251Z,25.80
2022-10-02T09:51:33.950Z,25.90
2022-10-02T09:54:22.652Z,25.80
2022-10-02T09:57:02.691Z,25.80
2022-10-02T09:59:49.943Z,25.80
2022-10-02T10:02:29.843Z,25.80
2022-10-02T10:05:10.191Z,25.80
2022-10-02T10:07:50.746Z,25.80
2022-10-02T10:10:38.504Z,25.80
2022-10-02T10:13:21.449Z,25.80
2022-10-02T10:16:03.222Z,25.80
2022-10-02T10:18:43.137Z,25.80
2022-10-02T10:21:30.430Z,25.80
2022-10-02T10:24:17.553Z,25.80
2022-10-02T10:26:57.404Z,25.80
2022-10-02T10:29:40.101Z,25.80
2022-10-02T10:32:25.614Z,25.80
2022-10-02T10:35:12.807Z,25.80
2022-10-02T10:38:12.182Z,25.80
2022-10-02T10:40:51.944Z,25.80
2022-10-02T10:43:33.306Z,25.70
2022-10-02T10:46:20.600Z,25.70
2022-10-02T10:49:05.868Z,25.70
2022-10-02T10:51:36.315Z,25.70
2022-10-02T10:54:17.003Z,25.70
2022-10-02T10:56:46.648Z,25.70
2022-10-02T10:59:27.511Z,25.70
2022-10-02T11:02:16.121Z,25.70
2022-10-02T11:05:01.558Z,25.60
2022-10-02T11:07:48.653Z,25.60
2022-10-02T11:10:28.740Z,25.60
2022-10-02T11:13:10.696Z,25.60
2022-10-02T11:15:56.725Z,25.60
2022-10-02T11:18:36.549Z,25.60
2022-10-02T11:21:24.475Z,25.60
2022-10-02T11:24:09.049Z,25.60
2022-10-02T11:26:48.851Z,25.60
2022-10-02T11:29:34.435Z,25.60
2022-10-02T11:32:25.534Z,25.60
2022-10-02T11:35:06.871Z,25.60
2022-10-02T11:37:46.653Z,25.60
2022-10-02T11:40:19.633Z,25.60
2022-10-02T11:43:11.757Z,25.60
2022-10-02T11:45:51.866Z,25.60
2022-10-02T11:48:34.304Z,25.60
2022-10-02T11:51:14.079Z,25.60
2022-10-02T11:53:50.784Z,25.60
2022-10-02T11:56:31.711Z,25.60
2022-10-02T11:59:11.568Z,25.60
2022-10-02T12:01:46.761Z,25.60
2022-10-02T12:04:26.564Z,25.60
2022-10-02T12:07:05.409Z,25.60
2022-10-02T12:09:45.274Z,25.60
2022-10-02T12:12:27.913Z,25.60
2022-10-02T12:15:07.970Z,25.60
2022-10-02T12:17:55.106Z,25.60
2022-10-02T12:20:47.107Z,25.60
2022-10-02T12:23:37.992Z,25.60
2022-10-02T12:26:37.392Z,25.60
2022-10-02T12:29:25.505Z,25.60
2022-10-02T12:32:08.581Z,25.60
2022-10-02T12:34:55.742Z,25.60
2022-10-02T12:37:42.916Z,25.60
2022-10-02T12:40:23.538Z,25.60
2022-10-02T12:43:03.322Z,25.60
2022-10-02T12:45:44.282Z,25.60
2022-10-02T12:48:28.568Z,25.50
2022-10-02T12:51:10.825Z,25.50
2022-10-02T12:53:50.561Z,25.50
2022-10-02T12:56:27.542Z,25.50
2022-10-02T12:59:05.139Z,25.60
2022-10-02T13:01:45.804Z,25.60
2022-10-02T13:04:26.854Z,25.60
2022-10-02T13:07:06.652Z,25.60
2022-10-02T13:09:53.752Z,25.60
2022-10-02T13:12:40.918Z,25.60
2022-10-02T13:15:19.861Z,25.60
2022-10-02T13:17:59.597Z,25.50
2022-10-02T13:20:47.824Z,25.60
2022-10-02T13:23:36.865Z,25.60
2022-10-02T13:26:19.517Z,25.50
2022-10-02T13:28:57.032Z,25.50
2022-10-02T13:31:37.149Z,25.50
2022-10-02T13:34:12.938Z,25.50
2022-10-02T13:36:50.312Z,25.50
2022-10-02T13:39:37.459Z,25.50
2022-10-02T13:42:14.293Z,25.50
2022-10-02T13:44:54.168Z,25.50
2022-10-02T13:47:41.612Z,25.50
2022-10-02T13:50:28.815Z,25.50
2022-10-02T13:53:05.136Z,25.50
2022-10-02T13:55:34.845Z,25.50
2022-10-02T13:58:14.669Z,25.50
2022-10-02T14:01:01.809Z,25.50
2022-10-02T14:03:41.687Z,25.50
2022-10-02T14:06:21.565Z,25.50
2022-10-02T14:09:08.694Z,25.50
2022-10-02T14:11:48.457Z,25.50
2022-10-02T14:14:27.448Z,25.50
2022-10-02T14:17:14.626Z,25.50
2022-10-02T14:20:01.821Z,25.50
2022-10-02T14:22:48.966Z,25.50
2022-10-02T14:25:36.224Z,25.50
2022-10-02T14:28:23.403Z,25.50
2022-10-02T14:30:59.002Z,25.50
2022-10-02T14:33:38.932Z,25.50
2022-10-02T14:36:26.233Z,25.50
2022-10-02T14:39:06.005Z,25.30
2022-10-02T14:41:49.183Z,25.20
2022-10-02T14:44:36.482Z,25.20
2022-10-02T14:47:16.325Z,25.10
2022-10-02T14:49:54.941Z,25.00
2022-10-02T14:52:36.174Z,25.00
2022-10-02T14:55:23.358Z,25.00
2022-10-02T14:58:03.167Z,24.90
2022-10-02T15:00:42.929Z,24.90
2022-10-02T15:03:30.153Z,24.90
2022-10-02T15:06:14.671Z,24.90
2022-10-02T15:08:46.349Z,24.80
2022-10-02T15:11:26.032Z,24.80
2022-10-02T15:13:59.218Z,24.80
2022-10-02T15:16:45.469Z,24.80
2022-10-02T15:19:32.591Z,24.80
2022-10-02T15:22:04.303Z,24.80
2022-10-02T15:24:34.726Z,24.80
2022-10-02T15:27:22.166Z,24.80
2022-10-02T15:29:57.035Z,24.80
2022-10-02T15:32:44.303Z,24.80
2022-10-02T15:35:31.616Z,24.80
2022-10-02T15:38:11.425Z,24.80
2022-10-02T15:40:59.034Z,24.80
2022-10-02T15:43:33.923Z,24.80
2022-10-02T15:46:21.199Z,24.70
2022-10-02T15:48:54.110Z,24.70
2022-10-02T15:51:41.258Z,24.70
2022-10-02T15:54:15.707Z,24.70
2022-10-02T15:57:03.831Z,24.70
2022-10-02T15:59:44.346Z,24.80
2022-10-02T16:02:25.270Z,24.70
2022-10-02T16:05:01.409Z,24.70
2022-10-02T16:07:41.447Z,24.80
2022-10-02T16:10:26.291Z,24.80
2022-10-02T16:13:13.500Z,24.80
2022-10-02T16:15:53.306Z,24.80
2022-10-02T16:18:38.328Z,24.80
2022-10-02T16:21:25.437Z,24.70
2022-10-02T16:24:12.610Z,24.70
2022-10-02T16:27:00.287Z,24.70
2022-10-02T16:29:48.001Z,24.70
2022-10-02T16:32:28.551Z,24.70
2022-10-02T16:35:12.659Z,24.70
2022-10-02T16:37:52.409Z,24.60
2022-10-02T16:40:32.471Z,24.60
2022-10-02T16:43:13.190Z,24.60
2022-10-02T16:45:53.798Z,24.60
2022-10-02T16:48:26.673Z,24.60
2022-10-02T16:51:12.872Z,24.60
2022-10-02T16:53:52.672Z,24.60
2022-10-02T16:56:39.989Z,24.60
2022-10-02T16:59:14.776Z,24.60
2022-10-02T17:01:59.448Z,24.60
2022-10-02T17:04:54.361Z,24.60
2022-10-02T17:07:32.247Z,24.60
2022-10-02T17:10:14.369Z,24.60
2022-10-02T17:12:56.509Z,24.60
2022-10-02T17:15:28.794Z,24.60
2022-10-02T17:18:15.934Z,24.60
2022-10-02T17:20:48.519Z,24.60
2022-10-02T17:23:35.750Z,24.60
2022-10-02T17:26:15.379Z,24.60
2022-10-02T17:28:49.714Z,24.60
2022-10-02T17:31:23.691Z,24.60
2022-10-02T17:33:53.075Z,24.60
2022-10-02T17:36:41.097Z,24.60
2022-10-02T17:39:21.512Z,24.60
2022-10-02T17:41:58.787Z,24.60
2022-10-02T17:44:41.875Z,24.60
2022-10-02T17:47:24.237Z,24.60
2022-10-02T17:49:59.264Z,24.60
2022-10-02T17:52:50.770Z,24.60
2022-10-02T17:55:50.160Z,24.60
2022-10-02T17:58:30.055Z,24.60
2022-10-02T18:01:10.964Z,24.60
2022-10-02T18:03:44.083Z,24.60
2022-10-02T18:06:17.778Z,24.60
2022-10-02T18:09:05.130Z,24.60
2022-10-02T18:11:52.248Z,24.70
2022-10-02T18:14:32.015Z,24.70
2022-10-02T18:17:16.253Z,24.70
2022-10-02T18:19:51.668Z,24.70
2022-10-02T18:22:38.748Z,24.70
2022-10-02T18:25:19.373Z,24.70
2022-10-02T18:28:06.533Z,24.70
2022-10-02T18:30:54.851Z,24.70
2022-10-02T18:33:42.628Z,24.70
2022-10-02T18:36:29.792Z,24.70
2022-10-02T18:39:17.656Z,24.70
2022-10-02T18:41:58.278Z,24.80
2022-10-02T18:44:40.043Z,24.80
2022-10-02T18:47:14.369Z,24.70
2022-10-02T18:49:49.046Z,24.80
2022-10-02T18:52:22.759Z,24.80
2022-10-02T18:55:03.331Z,24.80
2022-10-02T18:57:43.873Z,24.80
2022-10-02T19:00:19.959Z,24.80
2022-10-02T19:02:59.861Z,24.80
2022-10-02T19:05:39.565Z,24.70
2022-10-02T19:08:20.162Z,24.70
2022-10-02T19:10:48.329Z,24.70
2022-10-02T19:13:27.486Z,24.70
2022-10-02T19:15:58.647Z,24.70
2022-10-02T19:18:28.030Z,24.70
2022-10-02T19:21:15.160Z,24.70
2022-10-02T19:23:56.697Z,24.60
2022-10-02T19:26:27.249Z,24.60
2022-10-02T19:28:57.359Z,24.60
2022-10-02T19:31:29.215Z,24.60
2022-10-02T19:34:02.046Z,24.60
2022-10-02T19:36:32.515Z,24.60
2022-10-02T19:39:02.766Z,24.60
2022-10-02T19:41:36.487Z,24.50
2022-10-02T19:44:08.192Z,24.50
2022-10-02T19:46:40.398Z,24.50
2022-10-02T19:49:09.212Z,24.50
2022-10-02T19:51:44.198Z,24.50
2022-10-02T19:54:16.297Z,24.50
2022-10-02T19:56:44.975Z,24.50
2022-10-02T19:59:16.538Z,24.50
2022-10-02T20:01:50.814Z,24.50
2022-10-02T20:04:20.647Z,24.50
2022-10-02T20:06:53.123Z,24.50
2022-10-02T20:09:25.790Z,24.50
2022-10-02T20:12:05.485Z,24.50
2022-10-02T20:14:52.667Z,24.50
2022-10-02T20:17:20.689Z,24.50
2022-10-02T20:19:53.675Z,24.50
2022-10-02T20:22:29.490Z,24.50
2022-10-02T20:25:12.242Z,24.50
2022-10-02T20:27:50.693Z,24.50
2022-10-02T20:30:21.952Z,24.50
2022-10-02T20:33:03.387Z,24.40
2022-10-02T20:35:45.303Z,24.40
2022-10-02T20:38:22.666Z,24.40
2022-10-02T20:40:53.391Z,24.40
2022-10-02T20:43:33.119Z,24.40
2022-10-02T20:46:16.541Z,24.40
2022-10-02T20:49:08.598Z,24.50
2022-10-02T20:51:53.422Z,24.50
2022-10-02T20:54:40.763Z,24.50
2022-10-02T20:57:43.464Z,24.50
2022-10-02T21:00:18.270Z,24.50
2022-10-02T21:03:05.402Z,24.40
2022-10-02T21:05:53.355Z,24.50
2022-10-02T21:08:40.713Z,24.50
2022-10-02T21:11:21.516Z,24.50
2022-10-02T21:14:03.889Z,24.50
2022-10-02T21:16:50.010Z,24.50
2022-10-02T21:19:29.810Z,24.50
2022-10-02T21:22:09.530Z,24.50
2022-10-02T21:24:56.706Z,24.50
2022-10-02T21:27:36.482Z,24.50
2022-10-02T21:30:15.894Z,24.50
2022-10-02T21:32:56.256Z,24.50
2022-10-02T21:35:36.129Z,24.50
2022-10-02T21:38:16.311Z,24.50
2022-10-02T21:40:56.874Z,24.60
2022-10-02T21:43:44.571Z,24.50
2022-10-02T21:46:31.935Z,24.50
2022-10-02T21:49:19.365Z,24.60
2022-10-02T21:52:06.548Z,24.60
2022-10-02T21:54:46.239Z,24.60
2022-10-02T21:57:33.423Z,24.60
2022-10-02T22:00:14.509Z,24.60
2022-10-02T22:03:04.667Z,24.60
2022-10-02T22:05:51.839Z,24.60
2022-10-02T22:08:34.656Z,24.60
2022-10-02T22:11:22.980Z,24.70
2022-10-02T22:13:55.996Z,24.70
2022-10-02T22:16:30.387Z,24.70
2022-10-02T22:19:17.682Z,24.70
2022-10-02T22:21:54.223Z,24.70
2022-10-02T22:24:26.946Z,24.70
2022-10-02T22:27:08.672Z,24.70
2022-10-02T22:29:56.661Z,24.70
2022-10-02T22:32:48.829Z,24.70
2022-10-02T22:35:36.047Z,24.70
2022-10-02T22:38:10.237Z,24.70
2022-10-02T22:40:47.528Z,24.70
2022-10-02T22:43:19.540Z,24.70
2022-10-02T22:45:52.683Z,24.80
2022-10-02T22:48:32.629Z,24.80
2022-10-02T22:51:19.754Z,24.80
2022-10-02T22:53:53.336Z,24.70
2022-10-02T22:56:32.801Z,24.80
2022-10-02T22:59:07.638Z,24.70
2022-10-02T23:01:42.700Z,24.70
2022-10-02T23:04:30.091Z,24.60
2022-10-02T23:07:06.653Z,24.50
2022-10-02T23:09:53.948Z,24.30
2022-10-02T23:12:41.878Z,24.20
2022-10-02T23:15:22.950Z,24.00
2022-10-02T23:17:52.602Z,23.90
2022-10-02T23:20:24.189Z,23.90
2022-10-02T23:23:04.007Z,23.80
2022-10-02T23:25:34.598Z,23.80
2022-10-02T23:28:21.721Z,23.70
2022-10-02T23:31:01.603Z,23.70
2022-10-02T23:33:43.924Z,23.70
2022-10-02T23:36:21.237Z,23.70
2022-10-02T23:39:08.345Z,23.80
2022-10-02T23:41:49.322Z,23.70
2022-10-02T23:44:24.334Z,23.80
2022-10-02T23:47:11.525Z,23.80
2022-10-02T23:49:43.541Z,23.70
2022-10-02T23:52:20.400Z,23.70
2022-10-02T23:55:00.653Z,23.80
2022-10-02T23:57:49.725Z,23.80
